sensor_id;sensor_type;location;lat;lon;timestamp;P1;durP1;ratioP1;P2;durP2;ratioP2
64875;SDS011;51369;49.862;9.908;2023-02-03T00:01:47;11.85;;;5.22;;
64875;SDS011;51369;49.862;9.908;2023-02-03T00:04:12;10.05;;;5.07;;
64875;SDS011;51369;49.862;9.908;2023-02-03T00:06:38;12.60;;;5.28;;
64875;SDS011;51369;49.862;9.908;2023-02-03T00:09:04;11.73;;;5.38;;
64875;SDS011;51369;49.862;9.908;2023-02-03T00:11:30;16.95;;;5.32;;
64875;SDS011;51369;49.862;9.908;2023-02-03T00:13:56;10.52;;;5.85;;
64875;SDS011;51369;49.862;9.908;2023-02-03T00:16:21;14.45;;;5.35;;
64875;SDS011;51369;49.862;9.908;2023-02-03T00:18:46;15.40;;;4.85;;
64875;SDS011;51369;49.862;9.908;2023-02-03T00:21:12;16.15;;;5.60;;
64875;SDS011;51369;49.862;9.908;2023-02-03T00:23:39;10.43;;;5.80;;
64875;SDS011;51369;49.862;9.908;2023-02-03T00:26:06;8.15;;;5.07;;
64875;SDS011;51369;49.862;9.908;2023-02-03T00:28:32;13.10;;;6.80;;
64875;SDS011;51369;49.862;9.908;2023-02-03T00:30:58;13.50;;;4.55;;
64875;SDS011;51369;49.862;9.908;2023-02-03T00:33:23;12.90;;;5.45;;
64875;SDS011;51369;49.862;9.908;2023-02-03T00:35:49;9.98;;;5.07;;
64875;SDS011;51369;49.862;9.908;2023-02-03T00:38:14;8.98;;;5.38;;
64875;SDS011;51369;49.862;9.908;2023-02-03T00:40:40;15.98;;;5.57;;
64875;SDS011;51369;49.862;9.908;2023-02-03T00:43:05;9.60;;;4.38;;
64875;SDS011;51369;49.862;9.908;2023-02-03T00:45:31;10.75;;;5.20;;
64875;SDS011;51369;49.862;9.908;2023-02-03T00:47:56;8.80;;;4.45;;
64875;SDS011;51369;49.862;9.908;2023-02-03T00:50:22;9.05;;;5.05;;
64875;SDS011;51369;49.862;9.908;2023-02-03T00:52:48;10.85;;;4.97;;
64875;SDS011;51369;49.862;9.908;2023-02-03T00:55:13;7.28;;;4.80;;
64875;SDS011;51369;49.862;9.908;2023-02-03T00:57:39;12.95;;;5.30;;
64875;SDS011;51369;49.862;9.908;2023-02-03T01:00:05;10.48;;;4.93;;
64875;SDS011;51369;49.862;9.908;2023-02-03T01:02:31;10.48;;;5.28;;
64875;SDS011;51369;49.862;9.908;2023-02-03T01:04:56;13.13;;;7.30;;
64875;SDS011;51369;49.862;9.908;2023-02-03T01:07:21;10.13;;;4.90;;
64875;SDS011;51369;49.862;9.908;2023-02-03T01:09:47;9.30;;;4.45;;
64875;SDS011;51369;49.862;9.908;2023-02-03T01:12:12;8.75;;;4.43;;
64875;SDS011;51369;49.862;9.908;2023-02-03T01:14:39;11.07;;;4.70;;
64875;SDS011;51369;49.862;9.908;2023-02-03T01:17:04;11.00;;;4.55;;
64875;SDS011;51369;49.862;9.908;2023-02-03T01:19:30;13.68;;;5.05;;
64875;SDS011;51369;49.862;9.908;2023-02-03T01:21:55;11.68;;;5.22;;
64875;SDS011;51369;49.862;9.908;2023-02-03T01:24:20;10.73;;;4.72;;
64875;SDS011;51369;49.862;9.908;2023-02-03T01:26:46;10.50;;;4.70;;
64875;SDS011;51369;49.862;9.908;2023-02-03T01:29:11;9.18;;;5.10;;
64875;SDS011;51369;49.862;9.908;2023-02-03T01:31:37;8.85;;;4.90;;
64875;SDS011;51369;49.862;9.908;2023-02-03T01:34:06;8.85;;;4.70;;
64875;SDS011;51369;49.862;9.908;2023-02-03T01:36:33;7.10;;;4.22;;
64875;SDS011;51369;49.862;9.908;2023-02-03T01:39:00;10.20;;;4.50;;
64875;SDS011;51369;49.862;9.908;2023-02-03T01:41:28;11.43;;;4.70;;
64875;SDS011;51369;49.862;9.908;2023-02-03T01:43:59;10.38;;;4.47;;
64875;SDS011;51369;49.862;9.908;2023-02-03T01:46:30;10.65;;;5.05;;
64875;SDS011;51369;49.862;9.908;2023-02-03T01:49:08;7.72;;;4.05;;
64875;SDS011;51369;49.862;9.908;2023-02-03T01:51:39;11.88;;;4.75;;
64875;SDS011;51369;49.862;9.908;2023-02-03T01:54:07;9.73;;;4.63;;
64875;SDS011;51369;49.862;9.908;2023-02-03T01:56:38;7.43;;;3.95;;
64875;SDS011;51369;49.862;9.908;2023-02-03T01:59:07;7.70;;;4.30;;
64875;SDS011;51369;49.862;9.908;2023-02-03T02:01:33;6.53;;;4.05;;
64875;SDS011;51369;49.862;9.908;2023-02-03T02:04:00;11.85;;;4.40;;
64875;SDS011;51369;49.862;9.908;2023-02-03T02:06:28;12.43;;;4.68;;
64875;SDS011;51369;49.862;9.908;2023-02-03T02:08:53;9.18;;;4.20;;
64875;SDS011;51369;49.862;9.908;2023-02-03T02:11:21;11.43;;;3.60;;
64875;SDS011;51369;49.862;9.908;2023-02-03T02:13:47;11.35;;;5.18;;
64875;SDS011;51369;49.862;9.908;2023-02-03T02:16:17;9.02;;;4.35;;
64875;SDS011;51369;49.862;9.908;2023-02-03T02:21:31;9.77;;;4.30;;
64875;SDS011;51369;49.862;9.908;2023-02-03T02:38:33;8.95;;;4.07;;
64875;SDS011;51369;49.862;9.908;2023-02-03T02:41:11;9.35;;;4.28;;
64875;SDS011;51369;49.862;9.908;2023-02-03T02:43:41;5.95;;;3.88;;
64875;SDS011;51369;49.862;9.908;2023-02-03T02:46:17;7.63;;;4.22;;
64875;SDS011;51369;49.862;9.908;2023-02-03T02:48:51;8.00;;;4.32;;
64875;SDS011;51369;49.862;9.908;2023-02-03T02:51:24;9.07;;;3.95;;
64875;SDS011;51369;49.862;9.908;2023-02-03T02:53:53;9.88;;;4.30;;
64875;SDS011;51369;49.862;9.908;2023-02-03T02:56:24;6.80;;;3.92;;
64875;SDS011;51369;49.862;9.908;2023-02-03T02:58:51;11.77;;;4.78;;
64875;SDS011;51369;49.862;9.908;2023-02-03T03:01:20;6.38;;;3.55;;
64875;SDS011;51369;49.862;9.908;2023-02-03T03:03:45;5.55;;;3.80;;
64875;SDS011;51369;49.862;9.908;2023-02-03T03:06:20;7.90;;;3.75;;
64875;SDS011;51369;49.862;9.908;2023-02-03T03:11:21;10.20;;;3.85;;
64875;SDS011;51369;49.862;9.908;2023-02-03T03:13:51;8.13;;;3.50;;
64875;SDS011;51369;49.862;9.908;2023-02-03T03:16:20;8.13;;;3.70;;
64875;SDS011;51369;49.862;9.908;2023-02-03T03:18:50;9.43;;;3.63;;
64875;SDS011;51369;49.862;9.908;2023-02-03T03:21:21;7.18;;;3.47;;
64875;SDS011;51369;49.862;9.908;2023-02-03T03:23:52;6.63;;;3.53;;
64875;SDS011;51369;49.862;9.908;2023-02-03T03:29:16;5.20;;;3.22;;
64875;SDS011;51369;49.862;9.908;2023-02-03T03:31:44;5.57;;;3.35;;
64875;SDS011;51369;49.862;9.908;2023-02-03T03:34:10;6.82;;;3.35;;
64875;SDS011;51369;49.862;9.908;2023-02-03T03:36:39;7.00;;;3.55;;
64875;SDS011;51369;49.862;9.908;2023-02-03T03:39:11;12.10;;;3.83;;
64875;SDS011;51369;49.862;9.908;2023-02-03T03:45:03;9.73;;;3.65;;
64875;SDS011;51369;49.862;9.908;2023-02-03T03:47:36;8.02;;;3.80;;
64875;SDS011;51369;49.862;9.908;2023-02-03T03:52:33;5.22;;;2.90;;
64875;SDS011;51369;49.862;9.908;2023-02-03T03:55:02;7.80;;;3.05;;
64875;SDS011;51369;49.862;9.908;2023-02-03T04:00:14;7.18;;;3.47;;
64875;SDS011;51369;49.862;9.908;2023-02-03T04:02:45;6.53;;;3.93;;
64875;SDS011;51369;49.862;9.908;2023-02-03T04:05:15;3.97;;;3.37;;
64875;SDS011;51369;49.862;9.908;2023-02-03T04:07:41;7.88;;;3.25;;
64875;SDS011;51369;49.862;9.908;2023-02-03T04:13:01;5.20;;;3.25;;
64875;SDS011;51369;49.862;9.908;2023-02-03T04:15:28;9.00;;;3.28;;
64875;SDS011;51369;49.862;9.908;2023-02-03T04:17:53;5.10;;;3.60;;
64875;SDS011;51369;49.862;9.908;2023-02-03T04:20:21;3.30;;;2.78;;
64875;SDS011;51369;49.862;9.908;2023-02-03T04:22:47;6.10;;;3.50;;
64875;SDS011;51369;49.862;9.908;2023-02-03T04:25:12;5.70;;;3.08;;
64875;SDS011;51369;49.862;9.908;2023-02-03T04:27:38;4.15;;;2.85;;
64875;SDS011;51369;49.862;9.908;2023-02-03T04:30:04;4.72;;;2.72;;
64875;SDS011;51369;49.862;9.908;2023-02-03T04:32:30;5.30;;;2.63;;
64875;SDS011;51369;49.862;9.908;2023-02-03T04:34:56;5.70;;;2.58;;
64875;SDS011;51369;49.862;9.908;2023-02-03T04:37:22;5.20;;;2.60;;
64875;SDS011;51369;49.862;9.908;2023-02-03T04:39:50;4.93;;;2.80;;
64875;SDS011;51369;49.862;9.908;2023-02-03T04:42:16;4.72;;;2.13;;
64875;SDS011;51369;49.862;9.908;2023-02-03T04:44:42;2.67;;;2.08;;
64875;SDS011;51369;49.862;9.908;2023-02-03T04:47:08;5.80;;;2.42;;
64875;SDS011;51369;49.862;9.908;2023-02-03T04:49:33;4.90;;;2.35;;
64875;SDS011;51369;49.862;9.908;2023-02-03T04:51:59;2.45;;;2.22;;
64875;SDS011;51369;49.862;9.908;2023-02-03T04:54:24;2.35;;;2.08;;
64875;SDS011;51369;49.862;9.908;2023-02-03T04:56:50;2.67;;;2.22;;
64875;SDS011;51369;49.862;9.908;2023-02-03T04:59:15;2.58;;;2.10;;
64875;SDS011;51369;49.862;9.908;2023-02-03T05:01:40;2.67;;;2.10;;
64875;SDS011;51369;49.862;9.908;2023-02-03T05:04:06;4.28;;;1.98;;
64875;SDS011;51369;49.862;9.908;2023-02-03T05:06:32;2.85;;;2.00;;
64875;SDS011;51369;49.862;9.908;2023-02-03T05:08:57;5.63;;;2.60;;
64875;SDS011;51369;49.862;9.908;2023-02-03T05:11:23;3.33;;;2.40;;
64875;SDS011;51369;49.862;9.908;2023-02-03T05:13:49;3.75;;;2.20;;
64875;SDS011;51369;49.862;9.908;2023-02-03T05:16:14;2.80;;;2.00;;
64875;SDS011;51369;49.862;9.908;2023-02-03T05:18:40;2.70;;;2.10;;
64875;SDS011;51369;49.862;9.908;2023-02-03T05:21:06;2.28;;;2.00;;
64875;SDS011;51369;49.862;9.908;2023-02-03T05:23:31;3.72;;;2.13;;
64875;SDS011;51369;49.862;9.908;2023-02-03T05:25:57;4.03;;;2.25;;
64875;SDS011;51369;49.862;9.908;2023-02-03T05:28:22;4.50;;;2.53;;
64875;SDS011;51369;49.862;9.908;2023-02-03T05:30:48;3.38;;;2.08;;
64875;SDS011;51369;49.862;9.908;2023-02-03T05:33:13;3.72;;;1.90;;
64875;SDS011;51369;49.862;9.908;2023-02-03T05:35:39;7.35;;;1.90;;
64875;SDS011;51369;49.862;9.908;2023-02-03T05:38:04;2.33;;;2.00;;
64875;SDS011;51369;49.862;9.908;2023-02-03T05:40:30;3.10;;;2.20;;
64875;SDS011;51369;49.862;9.908;2023-02-03T05:43:14;2.33;;;2.05;;
64875;SDS011;51369;49.862;9.908;2023-02-03T05:45:40;4.40;;;1.98;;
64875;SDS011;51369;49.862;9.908;2023-02-03T05:48:05;3.55;;;2.15;;
64875;SDS011;51369;49.862;9.908;2023-02-03T05:50:34;4.00;;;2.15;;
64875;SDS011;51369;49.862;9.908;2023-02-03T05:55:31;2.25;;;1.95;;
64875;SDS011;51369;49.862;9.908;2023-02-03T05:57:58;4.18;;;2.00;;
64875;SDS011;51369;49.862;9.908;2023-02-03T06:00:25;4.72;;;2.13;;
64875;SDS011;51369;49.862;9.908;2023-02-03T06:02:51;4.53;;;2.35;;
64875;SDS011;51369;49.862;9.908;2023-02-03T06:05:18;3.75;;;1.98;;
64875;SDS011;51369;49.862;9.908;2023-02-03T06:07:45;3.40;;;2.30;;
64875;SDS011;51369;49.862;9.908;2023-02-03T06:10:10;2.25;;;2.05;;
64875;SDS011;51369;49.862;9.908;2023-02-03T06:12:38;3.92;;;2.03;;
64875;SDS011;51369;49.862;9.908;2023-02-03T06:15:04;4.50;;;2.30;;
64875;SDS011;51369;49.862;9.908;2023-02-03T06:17:30;5.00;;;2.60;;
64875;SDS011;51369;49.862;9.908;2023-02-03T06:19:55;3.65;;;2.63;;
64875;SDS011;51369;49.862;9.908;2023-02-03T06:22:21;3.33;;;2.70;;
64875;SDS011;51369;49.862;9.908;2023-02-03T06:24:47;3.25;;;2.80;;
64875;SDS011;51369;49.862;9.908;2023-02-03T06:27:15;4.03;;;2.80;;
64875;SDS011;51369;49.862;9.908;2023-02-03T06:29:41;4.22;;;2.58;;
64875;SDS011;51369;49.862;9.908;2023-02-03T06:32:07;5.05;;;2.25;;
64875;SDS011;51369;49.862;9.908;2023-02-03T06:34:33;3.75;;;2.25;;
64875;SDS011;51369;49.862;9.908;2023-02-03T06:36:58;3.67;;;2.30;;
64875;SDS011;51369;49.862;9.908;2023-02-03T06:39:24;6.38;;;2.63;;
64875;SDS011;51369;49.862;9.908;2023-02-03T06:41:49;4.65;;;2.30;;
64875;SDS011;51369;49.862;9.908;2023-02-03T06:44:19;5.97;;;2.42;;
64875;SDS011;51369;49.862;9.908;2023-02-03T06:46:45;3.10;;;2.47;;
64875;SDS011;51369;49.862;9.908;2023-02-03T06:49:10;5.28;;;2.80;;
64875;SDS011;51369;49.862;9.908;2023-02-03T06:51:36;2.40;;;2.10;;
64875;SDS011;51369;49.862;9.908;2023-02-03T06:54:02;6.15;;;2.88;;
64875;SDS011;51369;49.862;9.908;2023-02-03T06:56:28;6.53;;;2.70;;
64875;SDS011;51369;49.862;9.908;2023-02-03T06:58:54;3.63;;;2.20;;
64875;SDS011;51369;49.862;9.908;2023-02-03T07:01:20;5.43;;;2.75;;
64875;SDS011;51369;49.862;9.908;2023-02-03T07:03:46;6.53;;;2.40;;
64875;SDS011;51369;49.862;9.908;2023-02-03T07:06:12;6.85;;;2.90;;
64875;SDS011;51369;49.862;9.908;2023-02-03T07:08:37;5.18;;;2.28;;
64875;SDS011;51369;49.862;9.908;2023-02-03T07:11:03;3.83;;;2.60;;
64875;SDS011;51369;49.862;9.908;2023-02-03T07:13:28;2.88;;;2.17;;
64875;SDS011;51369;49.862;9.908;2023-02-03T07:15:54;5.07;;;2.28;;
64875;SDS011;51369;49.862;9.908;2023-02-03T07:18:19;2.67;;;2.40;;
64875;SDS011;51369;49.862;9.908;2023-02-03T07:20:48;2.15;;;1.88;;
64875;SDS011;51369;49.862;9.908;2023-02-03T07:23:14;4.28;;;2.55;;
64875;SDS011;51369;49.862;9.908;2023-02-03T07:25:39;3.80;;;2.10;;
64875;SDS011;51369;49.862;9.908;2023-02-03T07:28:05;4.82;;;2.40;;
64875;SDS011;51369;49.862;9.908;2023-02-03T07:30:30;5.75;;;2.30;;
64875;SDS011;51369;49.862;9.908;2023-02-03T07:32:55;4.03;;;2.72;;
64875;SDS011;51369;49.862;9.908;2023-02-03T07:35:21;5.55;;;2.40;;
64875;SDS011;51369;49.862;9.908;2023-02-03T07:37:46;2.60;;;2.08;;
64875;SDS011;51369;49.862;9.908;2023-02-03T07:40:13;6.00;;;2.55;;
64875;SDS011;51369;49.862;9.908;2023-02-03T07:42:42;4.68;;;2.90;;
64875;SDS011;51369;49.862;9.908;2023-02-03T07:45:09;3.38;;;2.33;;
64875;SDS011;51369;49.862;9.908;2023-02-03T07:47:35;5.70;;;2.40;;
64875;SDS011;51369;49.862;9.908;2023-02-03T07:50:01;4.47;;;2.47;;
64875;SDS011;51369;49.862;9.908;2023-02-03T07:52:26;2.47;;;2.20;;
64875;SDS011;51369;49.862;9.908;2023-02-03T07:54:52;5.88;;;2.40;;
64875;SDS011;51369;49.862;9.908;2023-02-03T07:57:17;4.70;;;2.15;;
64875;SDS011;51369;49.862;9.908;2023-02-03T07:59:42;4.47;;;2.53;;
64875;SDS011;51369;49.862;9.908;2023-02-03T08:02:08;4.03;;;2.55;;
64875;SDS011;51369;49.862;9.908;2023-02-03T08:04:35;6.18;;;2.45;;
64875;SDS011;51369;49.862;9.908;2023-02-03T08:07:01;5.60;;;2.50;;
64875;SDS011;51369;49.862;9.908;2023-02-03T08:09:26;4.70;;;2.65;;
64875;SDS011;51369;49.862;9.908;2023-02-03T08:11:52;4.65;;;2.08;;
64875;SDS011;51369;49.862;9.908;2023-02-03T08:14:17;2.65;;;2.20;;
64875;SDS011;51369;49.862;9.908;2023-02-03T08:16:42;3.20;;;2.10;;
64875;SDS011;51369;49.862;9.908;2023-02-03T08:19:09;3.65;;;2.50;;
64875;SDS011;51369;49.862;9.908;2023-02-03T08:21:34;3.95;;;2.30;;
64875;SDS011;51369;49.862;9.908;2023-02-03T08:24:00;3.00;;;2.38;;
64875;SDS011;51369;49.862;9.908;2023-02-03T08:26:25;6.63;;;2.65;;
64875;SDS011;51369;49.862;9.908;2023-02-03T08:28:50;3.90;;;2.50;;
64875;SDS011;51369;49.862;9.908;2023-02-03T08:31:16;4.70;;;1.98;;
64875;SDS011;51369;49.862;9.908;2023-02-03T08:33:42;2.67;;;2.17;;
64875;SDS011;51369;49.862;9.908;2023-02-03T08:36:07;3.20;;;2.33;;
64875;SDS011;51369;49.862;9.908;2023-02-03T08:38:33;8.45;;;2.40;;
64875;SDS011;51369;49.862;9.908;2023-02-03T08:40:58;5.57;;;2.22;;
64875;SDS011;51369;49.862;9.908;2023-02-03T08:43:24;3.80;;;2.15;;
64875;SDS011;51369;49.862;9.908;2023-02-03T08:45:49;5.13;;;2.00;;
64875;SDS011;51369;49.862;9.908;2023-02-03T08:48:14;3.25;;;1.95;;
64875;SDS011;51369;49.862;9.908;2023-02-03T08:50:41;5.63;;;2.05;;
64875;SDS011;51369;49.862;9.908;2023-02-03T08:53:08;4.35;;;2.03;;
64875;SDS011;51369;49.862;9.908;2023-02-03T08:55:36;4.63;;;2.17;;
64875;SDS011;51369;49.862;9.908;2023-02-03T08:58:03;6.10;;;1.90;;
64875;SDS011;51369;49.862;9.908;2023-02-03T09:00:28;5.93;;;2.13;;
64875;SDS011;51369;49.862;9.908;2023-02-03T09:02:53;3.42;;;1.73;;
64875;SDS011;51369;49.862;9.908;2023-02-03T09:05:19;1.70;;;1.60;;
64875;SDS011;51369;49.862;9.908;2023-02-03T09:07:44;3.83;;;1.90;;
64875;SDS011;51369;49.862;9.908;2023-02-03T09:10:10;4.82;;;1.98;;
64875;SDS011;51369;49.862;9.908;2023-02-03T09:12:35;2.85;;;1.80;;
64875;SDS011;51369;49.862;9.908;2023-02-03T09:15:01;4.55;;;1.65;;
64875;SDS011;51369;49.862;9.908;2023-02-03T09:17:26;4.43;;;2.25;;
64875;SDS011;51369;49.862;9.908;2023-02-03T09:19:52;3.97;;;1.77;;
64875;SDS011;51369;49.862;9.908;2023-02-03T09:22:18;3.22;;;1.60;;
64875;SDS011;51369;49.862;9.908;2023-02-03T09:24:43;2.03;;;1.48;;
64875;SDS011;51369;49.862;9.908;2023-02-03T09:27:08;4.60;;;2.00;;
64875;SDS011;51369;49.862;9.908;2023-02-03T09:29:35;4.13;;;1.70;;
64875;SDS011;51369;49.862;9.908;2023-02-03T09:32:00;2.58;;;1.75;;
64875;SDS011;51369;49.862;9.908;2023-02-03T09:34:31;2.83;;;1.65;;
64875;SDS011;51369;49.862;9.908;2023-02-03T09:36:56;2.92;;;1.70;;
64875;SDS011;51369;49.862;9.908;2023-02-03T09:39:21;4.00;;;1.52;;
64875;SDS011;51369;49.862;9.908;2023-02-03T09:47:20;1.90;;;1.52;;
64875;SDS011;51369;49.862;9.908;2023-02-03T09:49:50;3.05;;;1.83;;
64875;SDS011;51369;49.862;9.908;2023-02-03T09:52:20;3.25;;;1.67;;
64875;SDS011;51369;49.862;9.908;2023-02-03T09:54:55;3.42;;;1.50;;
64875;SDS011;51369;49.862;9.908;2023-02-03T09:57:26;2.78;;;1.60;;
64875;SDS011;51369;49.862;9.908;2023-02-03T09:59:55;2.13;;;1.50;;
64875;SDS011;51369;49.862;9.908;2023-02-03T10:08:20;3.20;;;1.77;;
64875;SDS011;51369;49.862;9.908;2023-02-03T10:10:52;1.98;;;1.40;;
64875;SDS011;51369;49.862;9.908;2023-02-03T10:14:06;2.05;;;1.50;;
64875;SDS011;51369;49.862;9.908;2023-02-03T10:19:32;2.75;;;1.48;;
64875;SDS011;51369;49.862;9.908;2023-02-03T10:22:07;2.45;;;1.48;;
64875;SDS011;51369;49.862;9.908;2023-02-03T10:24:47;3.13;;;1.70;;
64875;SDS011;51369;49.862;9.908;2023-02-03T10:27:20;2.65;;;1.00;;
64875;SDS011;51369;49.862;9.908;2023-02-03T10:30:31;1.70;;;1.17;;
64875;SDS011;51369;49.862;9.908;2023-02-03T10:32:50;2.00;;;1.48;;
64875;SDS011;51369;49.862;9.908;2023-02-03T10:35:20;2.20;;;1.38;;
64875;SDS011;51369;49.862;9.908;2023-02-03T10:37:49;1.92;;;1.40;;
64875;SDS011;51369;49.862;9.908;2023-02-03T10:40:18;2.70;;;1.52;;
64875;SDS011;51369;49.862;9.908;2023-02-03T10:42:46;2.55;;;1.33;;
64875;SDS011;51369;49.862;9.908;2023-02-03T10:45:32;2.50;;;1.30;;
64875;SDS011;51369;49.862;9.908;2023-02-03T10:48:02;5.63;;;1.50;;
64875;SDS011;51369;49.862;9.908;2023-02-03T10:50:29;1.85;;;1.05;;
64875;SDS011;51369;49.862;9.908;2023-02-03T10:55:48;1.40;;;1.30;;
64875;SDS011;51369;49.862;9.908;2023-02-03T10:58:25;2.33;;;1.50;;
64875;SDS011;51369;49.862;9.908;2023-02-03T11:03:40;4.80;;;1.20;;
64875;SDS011;51369;49.862;9.908;2023-02-03T11:06:11;2.05;;;1.23;;
64875;SDS011;51369;49.862;9.908;2023-02-03T11:08:40;1.80;;;1.10;;
64875;SDS011;51369;49.862;9.908;2023-02-03T11:11:09;3.95;;;1.20;;
64875;SDS011;51369;49.862;9.908;2023-02-03T11:13:39;3.10;;;1.20;;
64875;SDS011;51369;49.862;9.908;2023-02-03T11:18:43;1.98;;;1.42;;
64875;SDS011;51369;49.862;9.908;2023-02-03T11:23:48;2.25;;;1.48;;
64875;SDS011;51369;49.862;9.908;2023-02-03T11:26:20;3.40;;;1.23;;
64875;SDS011;51369;49.862;9.908;2023-02-03T11:28:55;4.53;;;1.27;;
64875;SDS011;51369;49.862;9.908;2023-02-03T11:31:28;3.53;;;1.20;;
64875;SDS011;51369;49.862;9.908;2023-02-03T11:33:57;3.35;;;1.38;;
64875;SDS011;51369;49.862;9.908;2023-02-03T11:36:27;2.80;;;1.25;;
64875;SDS011;51369;49.862;9.908;2023-02-03T11:39:07;4.20;;;1.20;;
64875;SDS011;51369;49.862;9.908;2023-02-03T11:41:42;1.30;;;0.82;;
64875;SDS011;51369;49.862;9.908;2023-02-03T11:44:11;4.45;;;1.40;;
64875;SDS011;51369;49.862;9.908;2023-02-03T11:46:41;2.33;;;1.30;;
64875;SDS011;51369;49.862;9.908;2023-02-03T11:49:45;4.28;;;1.00;;
64875;SDS011;51369;49.862;9.908;2023-02-03T11:52:32;3.50;;;1.25;;
64875;SDS011;51369;49.862;9.908;2023-02-03T12:01:05;4.05;;;1.30;;
64875;SDS011;51369;49.862;9.908;2023-02-03T12:09:15;3.58;;;0.93;;
64875;SDS011;51369;49.862;9.908;2023-02-03T12:11:57;4.57;;;1.60;;
64875;SDS011;51369;49.862;9.908;2023-02-03T12:14:51;2.97;;;1.00;;
64875;SDS011;51369;49.862;9.908;2023-02-03T12:20:04;2.40;;;1.13;;
64875;SDS011;51369;49.862;9.908;2023-02-03T12:25:43;3.33;;;1.10;;
64875;SDS011;51369;49.862;9.908;2023-02-03T12:28:37;1.52;;;1.20;;
64875;SDS011;51369;49.862;9.908;2023-02-03T12:31:33;1.92;;;0.88;;
64875;SDS011;51369;49.862;9.908;2023-02-03T12:36:43;2.28;;;0.85;;
64875;SDS011;51369;49.862;9.908;2023-02-03T12:42:14;5.10;;;1.27;;
64875;SDS011;51369;49.862;9.908;2023-02-03T12:44:58;1.77;;;1.00;;
64875;SDS011;51369;49.862;9.908;2023-02-03T12:49:56;5.90;;;1.13;;
64875;SDS011;51369;49.862;9.908;2023-02-03T12:52:37;4.85;;;1.35;;
64875;SDS011;51369;49.862;9.908;2023-02-03T12:57:40;2.28;;;1.02;;
64875;SDS011;51369;49.862;9.908;2023-02-03T13:00:26;1.38;;;0.80;;
64875;SDS011;51369;49.862;9.908;2023-02-03T13:08:40;1.63;;;0.80;;
64875;SDS011;51369;49.862;9.908;2023-02-03T13:11:13;2.20;;;1.00;;
64875;SDS011;51369;49.862;9.908;2023-02-03T13:13:47;4.70;;;0.82;;
64875;SDS011;51369;49.862;9.908;2023-02-03T13:16:16;3.63;;;0.90;;
64875;SDS011;51369;49.862;9.908;2023-02-03T13:18:50;1.63;;;0.80;;
64875;SDS011;51369;49.862;9.908;2023-02-03T13:21:20;2.80;;;0.95;;
64875;SDS011;51369;49.862;9.908;2023-02-03T13:23:46;1.02;;;0.90;;
64875;SDS011;51369;49.862;9.908;2023-02-03T13:29:04;4.45;;;1.20;;
64875;SDS011;51369;49.862;9.908;2023-02-03T13:32:03;1.23;;;0.98;;
64875;SDS011;51369;49.862;9.908;2023-02-03T13:35:10;1.80;;;0.70;;
64875;SDS011;51369;49.862;9.908;2023-02-03T13:40:27;0.75;;;0.60;;
64875;SDS011;51369;49.862;9.908;2023-02-03T13:43:03;1.35;;;0.75;;
64875;SDS011;51369;49.862;9.908;2023-02-03T13:45:37;1.92;;;0.75;;
64875;SDS011;51369;49.862;9.908;2023-02-03T13:48:13;0.88;;;0.52;;
64875;SDS011;51369;49.862;9.908;2023-02-03T13:50:42;4.00;;;1.00;;
64875;SDS011;51369;49.862;9.908;2023-02-03T13:53:18;1.52;;;0.73;;
64875;SDS011;51369;49.862;9.908;2023-02-03T13:55:56;5.00;;;0.70;;
64875;SDS011;51369;49.862;9.908;2023-02-03T13:58:28;0.75;;;0.63;;
64875;SDS011;51369;49.862;9.908;2023-02-03T14:05:50;0.82;;;0.63;;
64875;SDS011;51369;49.862;9.908;2023-02-03T14:16:42;1.42;;;0.75;;
64875;SDS011;51369;49.862;9.908;2023-02-03T14:19:53;0.70;;;0.70;;
64875;SDS011;51369;49.862;9.908;2023-02-03T14:21:57;2.08;;;0.90;;
64875;SDS011;51369;49.862;9.908;2023-02-03T14:24:30;1.35;;;0.75;;
64875;SDS011;51369;49.862;9.908;2023-02-03T14:26:57;3.58;;;1.10;;
64875;SDS011;51369;49.862;9.908;2023-02-03T14:29:28;2.97;;;0.73;;
64875;SDS011;51369;49.862;9.908;2023-02-03T14:37:18;0.70;;;0.70;;
64875;SDS011;51369;49.862;9.908;2023-02-03T14:59:28;0.60;;;0.60;;
64875;SDS011;51369;49.862;9.908;2023-02-03T15:02:07;0.80;;;0.80;;
64875;SDS011;51369;49.862;9.908;2023-02-03T15:04:35;1.08;;;0.98;;
64875;SDS011;51369;49.862;9.908;2023-02-03T15:07:00;2.10;;;0.80;;
64875;SDS011;51369;49.862;9.908;2023-02-03T15:12:16;0.85;;;0.68;;
64875;SDS011;51369;49.862;9.908;2023-02-03T15:14:44;1.13;;;0.68;;
64875;SDS011;51369;49.862;9.908;2023-02-03T15:17:11;0.80;;;0.80;;
64875;SDS011;51369;49.862;9.908;2023-02-03T15:19:44;1.15;;;0.63;;
64875;SDS011;51369;49.862;9.908;2023-02-03T15:22:43;0.90;;;0.80;;
64875;SDS011;51369;49.862;9.908;2023-02-03T15:25:02;0.73;;;0.70;;
64875;SDS011;51369;49.862;9.908;2023-02-03T15:27:37;0.60;;;0.60;;
64875;SDS011;51369;49.862;9.908;2023-02-03T15:32:51;0.50;;;0.50;;
64875;SDS011;51369;49.862;9.908;2023-02-03T15:35:29;0.68;;;0.47;;
64875;SDS011;51369;49.862;9.908;2023-02-03T15:37:59;1.20;;;0.50;;
64875;SDS011;51369;49.862;9.908;2023-02-03T15:40:32;0.65;;;0.65;;
64875;SDS011;51369;49.862;9.908;2023-02-03T15:43:04;0.65;;;0.50;;
64875;SDS011;51369;49.862;9.908;2023-02-03T15:45:40;0.75;;;0.55;;
64875;SDS011;51369;49.862;9.908;2023-02-03T15:48:38;2.28;;;0.60;;
64875;SDS011;51369;49.862;9.908;2023-02-03T15:54:10;0.40;;;0.40;;
64875;SDS011;51369;49.862;9.908;2023-02-03T15:56:58;0.63;;;0.60;;
64875;SDS011;51369;49.862;9.908;2023-02-03T15:59:30;0.45;;;0.45;;
64875;SDS011;51369;49.862;9.908;2023-02-03T16:02:11;0.70;;;0.60;;
64875;SDS011;51369;49.862;9.908;2023-02-03T16:04:41;0.50;;;0.50;;
64875;SDS011;51369;49.862;9.908;2023-02-03T16:07:11;0.40;;;0.40;;
64875;SDS011;51369;49.862;9.908;2023-02-03T16:09:42;0.65;;;0.63;;
64875;SDS011;51369;49.862;9.908;2023-02-03T16:14:49;1.17;;;0.80;;
64875;SDS011;51369;49.862;9.908;2023-02-03T16:19:44;0.65;;;0.65;;
64875;SDS011;51369;49.862;9.908;2023-02-03T16:22:35;0.82;;;0.77;;
64875;SDS011;51369;49.862;9.908;2023-02-03T16:25:22;1.05;;;0.80;;
64875;SDS011;51369;49.862;9.908;2023-02-03T16:31:01;0.90;;;0.70;;
64875;SDS011;51369;49.862;9.908;2023-02-03T16:33:52;0.68;;;0.65;;
64875;SDS011;51369;49.862;9.908;2023-02-03T16:36:40;1.30;;;1.10;;
64875;SDS011;51369;49.862;9.908;2023-02-03T16:39:25;1.73;;;1.00;;
64875;SDS011;51369;49.862;9.908;2023-02-03T16:42:15;0.93;;;0.88;;
64875;SDS011;51369;49.862;9.908;2023-02-03T16:45:01;1.05;;;0.90;;
64875;SDS011;51369;49.862;9.908;2023-02-03T16:47:46;1.00;;;0.80;;
64875;SDS011;51369;49.862;9.908;2023-02-03T16:50:30;1.05;;;0.80;;
64875;SDS011;51369;49.862;9.908;2023-02-03T16:53:27;0.88;;;0.88;;
64875;SDS011;51369;49.862;9.908;2023-02-03T16:56:00;1.67;;;1.00;;
64875;SDS011;51369;49.862;9.908;2023-02-03T16:58:28;1.13;;;0.98;;
64875;SDS011;51369;49.862;9.908;2023-02-03T17:00:56;2.70;;;1.20;;
64875;SDS011;51369;49.862;9.908;2023-02-03T17:03:24;2.20;;;1.30;;
64875;SDS011;51369;49.862;9.908;2023-02-03T17:05:52;1.23;;;1.13;;
64875;SDS011;51369;49.862;9.908;2023-02-03T17:08:19;2.40;;;1.25;;
64875;SDS011;51369;49.862;9.908;2023-02-03T17:10:46;1.55;;;1.20;;
64875;SDS011;51369;49.862;9.908;2023-02-03T17:13:12;1.95;;;1.40;;
64875;SDS011;51369;49.862;9.908;2023-02-03T17:15:42;2.22;;;1.38;;
64875;SDS011;51369;49.862;9.908;2023-02-03T17:18:10;1.70;;;1.30;;
64875;SDS011;51369;49.862;9.908;2023-02-03T17:20:36;4.70;;;1.15;;
64875;SDS011;51369;49.862;9.908;2023-02-03T17:23:02;4.07;;;1.17;;
64875;SDS011;51369;49.862;9.908;2023-02-03T17:25:28;1.50;;;0.88;;
64875;SDS011;51369;49.862;9.908;2023-02-03T17:27:53;2.65;;;1.55;;
64875;SDS011;51369;49.862;9.908;2023-02-03T17:30:18;3.10;;;2.47;;
64875;SDS011;51369;49.862;9.908;2023-02-03T17:32:44;1.52;;;1.30;;
64875;SDS011;51369;49.862;9.908;2023-02-03T17:35:09;8.00;;;3.95;;
64875;SDS011;51369;49.862;9.908;2023-02-03T17:37:35;2.65;;;1.98;;